createdAt,value
2023-02-23T00:02:06.047Z,9.31
2023-02-23T00:04:34.373Z,9.30
2023-02-23T00:07:03.975Z,9.18
2023-02-23T00:09:36.049Z,9.07
2023-02-23T00:12:08.050Z,9.11
2023-02-23T00:14:37.853Z,9.12
2023-02-23T00:17:08.426Z,9.15
2023-02-23T00:19:37.686Z,9.12
2023-02-23T00:22:06.978Z,9.11
2023-02-23T00:24:36.632Z,9.13
2023-02-23T00:27:06.492Z,9.17
2023-02-23T00:29:38.936Z,9.12
2023-02-23T00:32:05.907Z,9.14
2023-02-23T00:34:32.748Z,9.18
2023-02-23T00:36:59.368Z,9.20
2023-02-23T00:39:32.131Z,9.15
2023-02-23T00:42:03.616Z,9.14
2023-02-23T00:44:31.139Z,9.15
2023-02-23T00:46:57.904Z,9.05
2023-02-23T00:49:29.889Z,9.05
2023-02-23T00:51:56.516Z,9.06
2023-02-23T00:56:50.458Z,9.10
2023-02-23T00:59:18.296Z,9.06
2023-02-23T01:01:45.488Z,9.00
2023-02-23T01:04:13.188Z,8.97
2023-02-23T01:06:41.668Z,8.96
2023-02-23T01:09:11.209Z,8.93
2023-02-23T01:11:37.734Z,8.94
2023-02-23T01:14:04.308Z,8.91
2023-02-23T01:16:33.733Z,8.86
2023-02-23T01:19:04.049Z,8.85
2023-02-23T01:21:36.734Z,8.86
2023-02-23T01:24:06.450Z,8.86
2023-02-23T01:26:35.859Z,8.91
2023-02-23T01:29:08.845Z,8.89
2023-02-23T01:31:37.708Z,8.85
2023-02-23T01:34:06.155Z,8.76
2023-02-23T01:36:35.815Z,8.67
2023-02-23T01:39:06.187Z,8.62
2023-02-23T01:41:33.076Z,8.60
2023-02-23T01:44:01.219Z,8.57
2023-02-23T01:46:32.027Z,8.59
2023-02-23T01:48:59.694Z,8.61
2023-02-23T01:51:30.634Z,8.64
2023-02-23T01:54:10.013Z,8.64
2023-02-23T01:56:44.873Z,8.62
2023-02-23T02:01:42.767Z,8.64
2023-02-23T02:06:45.811Z,8.64
2023-02-23T02:11:46.426Z,8.60
2023-02-23T02:14:13.240Z,8.59
2023-02-23T02:17:03.000Z,8.59
2023-02-23T02:19:51.138Z,8.57
2023-02-23T02:22:36.411Z,8.56
2023-02-23T02:25:15.182Z,8.52
2023-02-23T02:30:53.340Z,8.50
2023-02-23T02:33:49.342Z,8.43
2023-02-23T02:36:34.280Z,8.43
2023-02-23T02:39:35.203Z,8.45
2023-02-23T02:42:32.108Z,8.43
2023-02-23T02:44:58.596Z,8.37
2023-02-23T02:47:48.830Z,8.33
2023-02-23T02:50:31.356Z,8.30
2023-02-23T02:53:29.363Z,8.33
2023-02-23T02:56:00.267Z,8.36
2023-02-23T02:58:27.863Z,8.37
2023-02-23T03:04:01.287Z,8.41
2023-02-23T03:06:54.577Z,8.39
2023-02-23T03:09:53.353Z,8.44
2023-02-23T03:12:48.423Z,8.44
2023-02-23T03:16:14.294Z,8.40
2023-02-23T03:22:37.466Z,8.17
2023-02-23T03:25:53.523Z,8.10
2023-02-23T03:28:48.245Z,8.04
2023-02-23T03:31:48.149Z,8.02
2023-02-23T03:34:38.897Z,7.93
2023-02-23T03:37:37.961Z,7.75
2023-02-23T03:40:32.066Z,7.82
2023-02-23T03:43:20.207Z,7.87
2023-02-23T03:46:07.474Z,7.73
2023-02-23T03:48:55.454Z,7.65
2023-02-23T03:51:43.729Z,7.64
2023-02-23T03:54:35.229Z,7.62
2023-02-23T03:57:24.245Z,7.66
2023-02-23T04:03:02.762Z,7.70
2023-02-23T04:05:50.212Z,7.69
2023-02-23T04:08:38.023Z,7.63
2023-02-23T04:11:38.239Z,7.55
2023-02-23T04:16:42.171Z,7.53
2023-02-23T04:19:09.069Z,7.48
2023-02-23T04:21:38.614Z,7.47
2023-02-23T04:24:05.389Z,7.42
2023-02-23T04:26:31.994Z,7.36
2023-02-23T04:29:01.686Z,7.28
2023-02-23T04:31:28.418Z,7.33
2023-02-23T04:33:55.012Z,7.27
2023-02-23T04:38:53.936Z,7.26
2023-02-23T04:41:20.763Z,7.26
2023-02-23T04:43:47.554Z,7.27
2023-02-23T04:48:41.218Z,7.15
2023-02-23T04:51:07.986Z,7.24
2023-02-23T04:53:34.796Z,7.25
2023-02-23T04:56:01.374Z,7.19
2023-02-23T04:58:28.064Z,7.18
2023-02-23T05:00:54.732Z,7.04
2023-02-23T05:03:21.526Z,7.08
2023-02-23T05:05:49.055Z,7.06
2023-02-23T05:08:30.136Z,7.07
2023-02-23T05:10:59.456Z,7.00
2023-02-23T05:13:26.159Z,7.03
2023-02-23T05:15:57.600Z,6.97
2023-02-23T05:18:25.364Z,6.94
2023-02-23T05:20:53.416Z,6.95
2023-02-23T05:23:21.898Z,7.03
2023-02-23T05:25:48.504Z,7.02
2023-02-23T05:30:41.851Z,7.04
2023-02-23T05:33:08.548Z,7.06
2023-02-23T05:35:38.081Z,7.07
2023-02-23T05:38:04.633Z,7.15
2023-02-23T05:40:31.220Z,7.13
2023-02-23T05:43:01.181Z,7.13
2023-02-23T05:45:27.927Z,7.14
2023-02-23T05:47:55.109Z,7.15
2023-02-23T05:50:21.771Z,7.21
2023-02-23T05:52:51.051Z,7.15
2023-02-23T05:55:17.760Z,7.17
2023-02-23T05:57:45.580Z,7.18
2023-02-23T06:06:05.244Z,7.15
2023-02-23T06:08:32.557Z,7.11
2023-02-23T06:10:59.805Z,7.20
2023-02-23T06:13:36.309Z,7.22
2023-02-23T06:16:06.162Z,7.21
2023-02-23T06:18:34.839Z,7.22
2023-02-23T06:21:06.918Z,7.28
2023-02-23T06:23:51.374Z,7.23
2023-02-23T06:26:27.421Z,7.21
2023-02-23T06:28:59.330Z,7.18
2023-02-23T06:31:37.890Z,7.22
2023-02-23T06:34:04.987Z,7.17
2023-02-23T06:36:34.452Z,7.22
2023-02-23T06:39:02.142Z,7.18
2023-02-23T06:41:32.821Z,7.17
2023-02-23T06:43:59.859Z,7.16
2023-02-23T06:46:29.892Z,7.17
2023-02-23T06:49:00.125Z,7.19
2023-02-23T06:51:40.286Z,7.20
2023-02-23T06:54:23.472Z,7.25
2023-02-23T06:56:50.628Z,7.27
2023-02-23T06:59:29.803Z,7.35
2023-02-23T07:01:59.729Z,7.36
2023-02-23T07:06:59.226Z,7.50
2023-02-23T07:09:36.279Z,7.51
2023-02-23T07:12:04.311Z,7.56
2023-02-23T07:14:35.595Z,7.59
2023-02-23T07:17:08.101Z,7.61
2023-02-23T07:19:41.364Z,7.67
2023-02-23T07:22:11.286Z,7.67
2023-02-23T07:29:40.781Z,7.69
2023-02-23T07:32:10.400Z,7.73
2023-02-23T07:34:37.902Z,7.81
2023-02-23T07:37:19.637Z,7.85
2023-02-23T07:39:49.619Z,7.90
2023-02-23T07:42:21.357Z,7.94
2023-02-23T07:44:48.246Z,8.01
2023-02-23T07:49:45.877Z,8.09
2023-02-23T07:52:14.085Z,8.12
2023-02-23T07:54:41.059Z,8.13
2023-02-23T07:57:07.908Z,8.20
2023-02-23T07:59:35.042Z,8.26
2023-02-23T08:02:11.652Z,8.26
2023-02-23T08:04:40.686Z,8.26
2023-02-23T08:07:08.748Z,8.36
2023-02-23T08:09:38.667Z,8.39
2023-02-23T08:12:08.646Z,8.42
2023-02-23T08:14:36.590Z,8.49
2023-02-23T08:17:05.829Z,8.50
2023-02-23T08:19:36.168Z,8.48
2023-02-23T08:22:08.952Z,8.51
2023-02-23T08:24:37.160Z,8.43
2023-02-23T08:27:04.785Z,8.48
2023-02-23T08:29:32.079Z,8.56
2023-02-23T08:31:59.262Z,8.60
2023-02-23T08:34:28.465Z,8.74
2023-02-23T08:37:02.636Z,8.85
2023-02-23T08:39:32.462Z,8.98
2023-02-23T08:42:02.958Z,9.08
2023-02-23T08:44:30.061Z,9.14
2023-02-23T08:47:00.616Z,9.21
2023-02-23T08:49:33.551Z,9.25
2023-02-23T08:52:03.175Z,9.28
2023-02-23T08:54:33.116Z,9.30
2023-02-23T08:57:02.107Z,9.31
2023-02-23T08:59:29.086Z,9.35
2023-02-23T09:01:58.564Z,9.45
2023-02-23T09:04:28.290Z,9.48
2023-02-23T09:06:57.644Z,9.50
2023-02-23T09:09:29.034Z,9.49
2023-02-23T09:12:00.661Z,9.47
2023-02-23T09:14:29.890Z,9.50
2023-02-23T09:16:58.179Z,9.55
2023-02-23T09:19:30.215Z,9.47
2023-02-23T09:22:04.969Z,9.49
2023-02-23T09:24:32.810Z,9.42
2023-02-23T09:27:12.656Z,9.42
2023-02-23T09:29:45.563Z,9.42
2023-02-23T09:34:45.427Z,9.36
2023-02-23T09:37:13.397Z,9.30
2023-02-23T09:39:57.072Z,9.21
2023-02-23T09:42:38.899Z,9.15
2023-02-23T09:45:39.098Z,9.14
2023-02-23T09:50:57.590Z,8.96
2023-02-23T09:53:48.257Z,8.99
2023-02-23T09:56:29.785Z,8.92
2023-02-23T09:59:00.308Z,8.88
2023-02-23T10:01:58.156Z,8.95
2023-02-23T10:04:32.495Z,8.97
2023-02-23T10:07:36.534Z,9.05
2023-02-23T10:10:45.897Z,9.10
2023-02-23T10:13:27.877Z,9.15
2023-02-23T10:16:07.562Z,9.21
2023-02-23T10:19:00.956Z,9.23
2023-02-23T10:21:44.106Z,9.29
2023-02-23T10:24:46.516Z,9.33
2023-02-23T10:27:28.349Z,9.35
2023-02-23T10:30:00.961Z,9.41
2023-02-23T10:32:58.722Z,9.45
2023-02-23T10:35:42.348Z,9.51
2023-02-23T10:38:41.648Z,9.59
2023-02-23T10:41:19.321Z,9.66
2023-02-23T10:44:16.173Z,9.76
2023-02-23T10:47:22.003Z,9.80
2023-02-23T10:49:59.659Z,9.84
2023-02-23T10:52:41.630Z,9.90
2023-02-23T10:55:26.380Z,9.88
2023-02-23T10:58:17.917Z,9.89
2023-02-23T11:01:11.535Z,9.95
2023-02-23T11:04:21.925Z,9.96
2023-02-23T11:07:32.707Z,10.11
2023-02-23T11:13:28.997Z,10.21
2023-02-23T11:16:13.433Z,10.28
2023-02-23T11:19:05.468Z,10.28
2023-02-23T11:21:58.614Z,10.30
2023-02-23T11:24:38.822Z,10.27
2023-02-23T11:27:25.080Z,10.28
2023-02-23T11:29:59.213Z,10.35
2023-02-23T11:32:39.072Z,10.41
2023-02-23T11:35:20.957Z,10.45
2023-02-23T11:37:53.191Z,10.43
2023-02-23T11:40:54.914Z,10.38
2023-02-23T11:45:56.536Z,10.36
2023-02-23T11:48:35.670Z,10.34
2023-02-23T11:51:05.620Z,10.35
2023-02-23T11:53:59.981Z,10.41
2023-02-23T11:56:34.171Z,10.47
2023-02-23T12:02:41.872Z,10.85
2023-02-23T12:05:32.547Z,10.97
2023-02-23T12:11:39.417Z,11.07
2023-02-23T12:16:54.954Z,11.09
2023-02-23T12:19:50.618Z,11.04
2023-02-23T12:23:00.408Z,11.00
2023-02-23T12:26:05.295Z,10.93
2023-02-23T12:29:06.910Z,10.85
2023-02-23T12:34:11.658Z,10.78
2023-02-23T12:36:20.918Z,10.82
2023-02-23T12:39:15.329Z,10.75
2023-02-23T12:45:02.956Z,10.73
2023-02-23T12:47:37.998Z,10.80
2023-02-23T12:50:51.617Z,10.89
2023-02-23T12:56:56.230Z,10.99
2023-02-23T13:03:23.425Z,11.25
2023-02-23T13:06:33.607Z,11.24
2023-02-23T13:09:36.712Z,11.25
2023-02-23T13:12:14.509Z,11.24
2023-02-23T13:18:03.944Z,11.23
2023-02-23T13:20:36.344Z,11.14
2023-02-23T13:23:21.292Z,11.08
2023-02-23T13:29:53.704Z,10.89
2023-02-23T13:32:49.865Z,10.81
2023-02-23T13:39:18.590Z,10.79
2023-02-23T13:45:29.090Z,10.62
2023-02-23T13:48:31.647Z,10.64
2023-02-23T13:57:03.586Z,10.78
2023-02-23T14:00:02.461Z,10.72
2023-02-23T14:03:15.078Z,10.68
2023-02-23T14:05:51.170Z,10.61
2023-02-23T14:09:33.056Z,10.59
2023-02-23T14:12:44.517Z,10.71
2023-02-23T14:15:42.625Z,10.80
2023-02-23T14:18:41.541Z,10.85
2023-02-23T14:21:53.334Z,10.93
2023-02-23T14:27:42.720Z,11.00
2023-02-23T14:30:13.656Z,11.02
2023-02-23T14:32:49.918Z,10.96
2023-02-23T14:36:04.409Z,10.94
2023-02-23T14:42:49.519Z,10.95
2023-02-23T14:45:45.269Z,10.95
2023-02-23T14:48:27.246Z,11.03
2023-02-23T14:51:48.773Z,11.11
2023-02-23T14:54:39.920Z,11.30
2023-02-23T14:57:58.563Z,11.34
2023-02-23T15:01:33.211Z,11.39
2023-02-23T15:04:37.078Z,11.33
2023-02-23T15:11:47.468Z,11.19
2023-02-23T15:14:34.611Z,11.04
2023-02-23T15:17:31.924Z,10.89
2023-02-23T15:20:54.568Z,10.79
2023-02-23T15:24:16.782Z,10.76
2023-02-23T15:27:10.759Z,10.72
2023-02-23T15:29:59.904Z,10.66
2023-02-23T15:33:06.000Z,10.60
2023-02-23T15:35:54.302Z,10.57
2023-02-23T15:42:44.627Z,10.52
2023-02-23T15:55:38.553Z,10.55
2023-02-23T16:02:30.314Z,10.48
2023-02-23T16:05:55.102Z,10.54
2023-02-23T16:10:14.440Z,10.55
2023-02-23T16:19:43.471Z,10.48
2023-02-23T16:22:39.516Z,10.48
2023-02-23T16:26:59.490Z,10.38
2023-02-23T16:30:42.470Z,10.35
2023-02-23T16:34:27.089Z,10.36
2023-02-23T16:41:48.027Z,10.29
2023-02-23T16:48:20.948Z,10.16
2023-02-23T16:51:06.997Z,10.07
2023-02-23T16:58:37.348Z,10.09
2023-02-23T17:05:40.515Z,10.07
2023-02-23T17:08:56.140Z,10.08
2023-02-23T17:11:46.469Z,10.10
2023-02-23T17:14:32.084Z,10.12
2023-02-23T17:17:08.756Z,10.17
2023-02-23T17:20:34.414Z,10.13
2023-02-23T17:23:32.019Z,10.12
2023-02-23T17:25:59.395Z,10.11
2023-02-23T17:28:36.230Z,10.13
2023-02-23T17:31:27.070Z,10.10
2023-02-23T17:34:06.587Z,10.10
2023-02-23T17:36:41.906Z,10.06
2023-02-23T17:43:17.172Z,10.01
2023-02-23T17:46:36.061Z,9.91
2023-02-23T17:49:21.436Z,9.69
2023-02-23T17:56:32.880Z,9.45
2023-02-23T18:03:41.610Z,9.42
2023-02-23T18:06:21.442Z,9.44
2023-02-23T18:12:51.154Z,9.39
2023-02-23T18:15:30.428Z,9.39
2023-02-23T18:18:21.908Z,9.34
2023-02-23T18:22:22.230Z,9.32
2023-02-23T18:25:29.524Z,9.29
2023-02-23T18:28:52.171Z,9.26
2023-02-23T18:31:38.564Z,9.13
2023-02-23T18:34:16.210Z,8.99
2023-02-23T18:37:18.600Z,8.96
2023-02-23T18:40:23.084Z,8.88
2023-02-23T18:42:57.601Z,8.86
2023-02-23T18:45:51.274Z,8.84
2023-02-23T18:48:43.023Z,8.83
2023-02-23T18:52:06.958Z,8.83
2023-02-23T19:10:29.675Z,8.88
2023-02-23T19:13:24.657Z,8.88
2023-02-23T19:20:01.226Z,8.92
2023-02-23T19:22:51.640Z,8.92
2023-02-23T19:28:51.914Z,8.96
2023-02-23T19:31:36.666Z,8.97
2023-02-23T19:38:04.598Z,8.91
2023-02-23T19:40:44.194Z,8.91
2023-02-23T19:43:20.484Z,8.93
2023-02-23T19:46:16.269Z,8.97
2023-02-23T19:54:34.594Z,8.93
2023-02-23T20:00:55.799Z,8.93
2023-02-23T20:04:10.523Z,8.83
2023-02-23T20:10:10.043Z,8.74
2023-02-23T20:12:48.609Z,8.76
2023-02-23T20:15:25.428Z,8.77
2023-02-23T20:18:07.270Z,8.74
2023-02-23T20:26:37.993Z,8.85
2023-02-23T20:38:01.684Z,8.71
2023-02-23T20:41:02.204Z,8.71
2023-02-23T20:43:32.489Z,8.71
2023-02-23T20:46:06.309Z,8.66
2023-02-23T20:48:49.212Z,8.66
2023-02-23T20:51:33.064Z,8.65
2023-02-23T20:59:16.672Z,8.68
2023-02-23T21:02:16.558Z,8.62
2023-02-23T21:04:59.250Z,8.68
2023-02-23T21:07:39.630Z,8.67
2023-02-23T21:10:31.296Z,8.71
2023-02-23T21:13:02.952Z,8.76
2023-02-23T21:15:48.608Z,8.76
2023-02-23T21:18:24.074Z,8.73
2023-02-23T21:21:32.543Z,8.66
2023-02-23T21:24:23.754Z,8.65
2023-02-23T21:29:28.907Z,8.61
2023-02-23T21:32:19.143Z,8.49
2023-02-23T21:34:54.044Z,8.48
2023-02-23T21:40:14.944Z,8.44
2023-02-23T21:45:19.687Z,8.54
2023-02-23T21:50:26.831Z,8.58
2023-02-23T21:53:05.515Z,8.55
2023-02-23T21:55:33.757Z,8.51
2023-02-23T21:58:03.253Z,8.48
2023-02-23T22:00:40.446Z,8.54
2023-02-23T22:03:10.309Z,8.49
2023-02-23T22:05:45.661Z,8.41
2023-02-23T22:10:59.472Z,8.39
2023-02-23T22:13:26.932Z,8.49
2023-02-23T22:16:01.656Z,8.52
2023-02-23T22:18:37.357Z,8.56
2023-02-23T22:21:07.793Z,8.57
2023-02-23T22:26:37.363Z,8.58
2023-02-23T22:29:14.158Z,8.68
2023-02-23T22:34:14.995Z,8.62
2023-02-23T22:39:25.203Z,8.60
2023-02-23T22:45:09.798Z,8.51
2023-02-23T22:50:19.504Z,8.53
2023-02-23T22:52:54.561Z,8.64
2023-02-23T22:55:24.076Z,8.68
2023-02-23T22:57:54.564Z,8.70
2023-02-23T23:01:10.806Z,8.60
2023-02-23T23:09:04.671Z,8.49
2023-02-23T23:11:37.188Z,8.45
2023-02-23T23:14:09.566Z,8.53
2023-02-23T23:16:49.519Z,8.48
2023-02-23T23:19:32.223Z,8.43
2023-02-23T23:27:56.009Z,8.47
2023-02-23T23:30:35.320Z,8.47
2023-02-23T23:33:19.612Z,8.47
2023-02-23T23:35:57.626Z,8.47
2023-02-23T23:42:02.241Z,8.43
2023-02-23T23:44:35.396Z,8.45
2023-02-23T23:47:06.406Z,8.45
2023-02-23T23:49:49.527Z,8.45
2023-02-23T23:52:23.812Z,8.43
2023-02-23T23:55:00.915Z,8.35
2023-02-23T23:57:39.876Z,8.29
